sensor_id;sensor_type;location;lat;lon;timestamp;pressure;altitude;pressure_sealevel;temperature;humidity
64503;BME280;50971;51.940;21.258;2023-11-22T00:09:07;101155.73;;;-1.98;100.00
64503;BME280;50971;51.940;21.258;2023-11-22T00:19:09;101158.51;;;-2.08;100.00
64503;BME280;50971;51.940;21.258;2023-11-22T00:29:11;101167.52;;;-2.06;100.00
64503;BME280;50971;51.940;21.258;2023-11-22T00:39:13;101183.23;;;-2.10;100.00
64503;BME280;50971;51.940;21.258;2023-11-22T00:49:15;101198.91;;;-2.04;100.00
64503;BME280;50971;51.940;21.258;2023-11-22T00:59:16;101203.32;;;-2.09;100.00
64503;BME280;50971;51.940;21.258;2023-11-22T01:09:19;101195.69;;;-2.07;100.00
64503;BME280;50971;51.940;21.258;2023-11-22T01:19:21;101202.66;;;-2.14;100.00
64503;BME280;50971;51.940;21.258;2023-11-22T01:29:22;101214.80;;;-2.09;100.00
64503;BME280;50971;51.940;21.258;2023-11-22T01:39:25;101231.92;;;-2.15;100.00
64503;BME280;50971;51.940;21.258;2023-11-22T01:49:28;101243.27;;;-2.15;100.00
64503;BME280;50971;51.940;21.258;2023-11-22T01:59:30;101247.48;;;-2.24;100.00
64503;BME280;50971;51.940;21.258;2023-11-22T02:09:33;101248.88;;;-2.24;100.00
64503;BME280;50971;51.940;21.258;2023-11-22T02:19:35;101247.40;;;-2.30;100.00
64503;BME280;50971;51.940;21.258;2023-11-22T02:29:38;101261.48;;;-2.36;100.00
64503;BME280;50971;51.940;21.258;2023-11-22T02:50:08;101280.88;;;-2.50;100.00
64503;BME280;50971;51.940;21.258;2023-11-22T03:00:12;101285.73;;;-2.60;100.00
64503;BME280;50971;51.940;21.258;2023-11-22T03:10:17;101288.20;;;-2.63;100.00
64503;BME280;50971;51.940;21.258;2023-11-22T03:20:20;101297.29;;;-2.73;100.00
64503;BME280;50971;51.940;21.258;2023-11-22T03:30:21;101308.48;;;-2.74;100.00
64503;BME280;50971;51.940;21.258;2023-11-22T03:40:23;101327.60;;;-2.82;100.00
64503;BME280;50971;51.940;21.258;2023-11-22T03:50:25;101351.83;;;-2.83;100.00
64503;BME280;50971;51.940;21.258;2023-11-22T04:00:27;101367.40;;;-2.92;100.00
64503;BME280;50971;51.940;21.258;2023-11-22T04:10:29;101394.09;;;-2.89;100.00
64503;BME280;50971;51.940;21.258;2023-11-22T04:20:32;101410.34;;;-2.84;100.00
64503;BME280;50971;51.940;21.258;2023-11-22T04:30:33;101439.70;;;-2.90;100.00
64503;BME280;50971;51.940;21.258;2023-11-22T04:40:35;101461.08;;;-2.91;100.00
64503;BME280;50971;51.940;21.258;2023-11-22T04:50:37;101477.15;;;-3.01;100.00
64503;BME280;50971;51.940;21.258;2023-11-22T05:00:39;101490.58;;;-3.07;100.00
64503;BME280;50971;51.940;21.258;2023-11-22T05:10:40;101505.33;;;-3.18;100.00
64503;BME280;50971;51.940;21.258;2023-11-22T05:20:42;101513.00;;;-3.29;100.00
64503;BME280;50971;51.940;21.258;2023-11-22T05:30:44;101526.71;;;-3.49;100.00
64503;BME280;50971;51.940;21.258;2023-11-22T05:40:46;101541.14;;;-3.53;100.00
64503;BME280;50971;51.940;21.258;2023-11-22T05:50:48;101547.98;;;-3.84;100.00
64503;BME280;50971;51.940;21.258;2023-11-22T06:00:50;101556.54;;;-4.33;100.00
64503;BME280;50971;51.940;21.258;2023-11-22T06:10:52;101566.23;;;-4.63;100.00
64503;BME280;50971;51.940;21.258;2023-11-22T06:20:54;101584.63;;;-4.99;100.00
64503;BME280;50971;51.940;21.258;2023-11-22T06:30:56;101612.95;;;-5.28;100.00
64503;BME280;50971;51.940;21.258;2023-11-22T06:40:58;101632.36;;;-5.36;100.00
64503;BME280;50971;51.940;21.258;2023-11-22T06:51:00;101648.88;;;-5.54;100.00
64503;BME280;50971;51.940;21.258;2023-11-22T07:01:02;101668.45;;;-5.62;100.00
64503;BME280;50971;51.940;21.258;2023-11-22T07:11:04;101684.86;;;-5.58;100.00
64503;BME280;50971;51.940;21.258;2023-11-22T07:21:07;101700.48;;;-5.56;100.00
64503;BME280;50971;51.940;21.258;2023-11-22T07:31:10;101705.48;;;-5.41;100.00
64503;BME280;50971;51.940;21.258;2023-11-22T07:41:13;101703.04;;;-5.39;100.00
64503;BME280;50971;51.940;21.258;2023-11-22T07:51:14;101712.80;;;-5.17;100.00
64503;BME280;50971;51.940;21.258;2023-11-22T08:01:19;101727.58;;;-5.12;100.00
64503;BME280;50971;51.940;21.258;2023-11-22T08:11:21;101744.98;;;-4.94;100.00
64503;BME280;50971;51.940;21.258;2023-11-22T08:21:23;101741.91;;;-4.84;100.00
64503;BME280;50971;51.940;21.258;2023-11-22T08:31:26;101732.61;;;-4.65;100.00
64503;BME280;50971;51.940;21.258;2023-11-22T08:41:28;101738.39;;;-4.48;100.00
64503;BME280;50971;51.940;21.258;2023-11-22T08:51:31;101735.54;;;-4.45;100.00
64503;BME280;50971;51.940;21.258;2023-11-22T09:01:35;101758.80;;;-4.19;100.00
64503;BME280;50971;51.940;21.258;2023-11-22T09:11:37;101766.31;;;-4.03;100.00
64503;BME280;50971;51.940;21.258;2023-11-22T09:21:39;101770.10;;;-3.90;100.00
64503;BME280;50971;51.940;21.258;2023-11-22T09:31:41;101781.63;;;-3.63;100.00
64503;BME280;50971;51.940;21.258;2023-11-22T09:41:48;101793.72;;;-3.53;100.00
64503;BME280;50971;51.940;21.258;2023-11-22T09:51:55;101791.07;;;-3.38;100.00
64503;BME280;50971;51.940;21.258;2023-11-22T10:01:59;101782.92;;;-3.29;100.00
64503;BME280;50971;51.940;21.258;2023-11-22T10:12:01;101768.85;;;-3.16;100.00
64503;BME280;50971;51.940;21.258;2023-11-22T10:22:05;101757.05;;;-3.03;100.00
64503;BME280;50971;51.940;21.258;2023-11-22T10:32:08;101754.92;;;-3.02;100.00
64503;BME280;50971;51.940;21.258;2023-11-22T10:42:11;101773.11;;;-2.91;100.00
64503;BME280;50971;51.940;21.258;2023-11-22T10:52:13;101776.86;;;-2.95;100.00
64503;BME280;50971;51.940;21.258;2023-11-22T11:02:18;101782.89;;;-2.80;100.00
64503;BME280;50971;51.940;21.258;2023-11-22T11:12:21;101785.30;;;-2.77;100.00
64503;BME280;50971;51.940;21.258;2023-11-22T11:22:23;101775.40;;;-2.72;100.00
64503;BME280;50971;51.940;21.258;2023-11-22T11:32:32;101763.34;;;-2.57;100.00
64503;BME280;50971;51.940;21.258;2023-11-22T11:42:34;101761.33;;;-2.64;100.00
64503;BME280;50971;51.940;21.258;2023-11-22T11:52:38;101757.81;;;-2.71;100.00
64503;BME280;50971;51.940;21.258;2023-11-22T12:02:41;101746.25;;;-2.58;100.00
64503;BME280;50971;51.940;21.258;2023-11-22T12:12:43;101749.27;;;-2.37;100.00
64503;BME280;50971;51.940;21.258;2023-11-22T12:22:48;101752.52;;;-2.39;100.00
64503;BME280;50971;51.940;21.258;2023-11-22T12:32:51;101749.81;;;-2.54;100.00
64503;BME280;50971;51.940;21.258;2023-11-22T12:42:53;101754.96;;;-2.71;100.00
64503;BME280;50971;51.940;21.258;2023-11-22T12:52:55;101761.09;;;-2.85;100.00
64503;BME280;50971;51.940;21.258;2023-11-22T13:02:57;101769.52;;;-2.72;100.00
64503;BME280;50971;51.940;21.258;2023-11-22T13:13:04;101753.41;;;-2.59;100.00
64503;BME280;50971;51.940;21.258;2023-11-22T13:23:11;101746.64;;;-2.66;100.00
64503;BME280;50971;51.940;21.258;2023-11-22T13:33:15;101761.60;;;-2.86;100.00
64503;BME280;50971;51.940;21.258;2023-11-22T13:43:17;101803.67;;;-3.13;100.00
64503;BME280;50971;51.940;21.258;2023-11-22T13:53:20;101809.35;;;-3.38;100.00
64503;BME280;50971;51.940;21.258;2023-11-22T14:03:24;101828.40;;;-3.64;100.00
64503;BME280;50971;51.940;21.258;2023-11-22T14:13:26;101791.94;;;-3.90;100.00
64503;BME280;50971;51.940;21.258;2023-11-22T14:23:28;101788.52;;;-4.17;100.00
64503;BME280;50971;51.940;21.258;2023-11-22T14:33:29;101766.77;;;-4.43;100.00
64503;BME280;50971;51.940;21.258;2023-11-22T14:43:33;101766.59;;;-4.74;100.00
64503;BME280;50971;51.940;21.258;2023-11-22T14:53:35;101775.02;;;-5.00;100.00
64503;BME280;50971;51.940;21.258;2023-11-22T15:03:37;101758.97;;;-4.95;100.00
64503;BME280;50971;51.940;21.258;2023-11-22T15:13:39;101740.25;;;-4.80;100.00
64503;BME280;50971;51.940;21.258;2023-11-22T15:23:41;101716.34;;;-4.69;100.00
64503;BME280;50971;51.940;21.258;2023-11-22T15:33:44;101729.53;;;-4.64;100.00
64503;BME280;50971;51.940;21.258;2023-11-22T15:43:46;101749.65;;;-4.82;100.00
64503;BME280;50971;51.940;21.258;2023-11-22T15:53:48;101737.15;;;-5.05;100.00
64503;BME280;50971;51.940;21.258;2023-11-22T16:03:50;101731.59;;;-5.29;100.00
64503;BME280;50971;51.940;21.258;2023-11-22T16:13:54;101766.15;;;-5.53;100.00
64503;BME280;50971;51.940;21.258;2023-11-22T16:34:51;101768.46;;;-5.82;100.00
64503;BME280;50971;51.940;21.258;2023-11-22T16:44:53;101754.97;;;-5.61;100.00
64503;BME280;50971;51.940;21.258;2023-11-22T16:55:05;101761.91;;;-5.25;100.00
64503;BME280;50971;51.940;21.258;2023-11-22T17:05:39;101783.21;;;-4.74;100.00
64503;BME280;50971;51.940;21.258;2023-11-22T17:15:43;101795.27;;;-4.23;100.00
64503;BME280;50971;51.940;21.258;2023-11-22T17:25:46;101804.14;;;-3.97;100.00
64503;BME280;50971;51.940;21.258;2023-11-22T17:35:55;101810.49;;;-3.84;100.00
64503;BME280;50971;51.940;21.258;2023-11-22T17:45:56;101767.67;;;-3.92;100.00
64503;BME280;50971;51.940;21.258;2023-11-22T17:55:59;101765.61;;;-4.18;100.00
64503;BME280;50971;51.940;21.258;2023-11-22T18:06:01;101754.96;;;-4.45;100.00
64503;BME280;50971;51.940;21.258;2023-11-22T18:16:05;101745.44;;;-4.61;100.00
64503;BME280;50971;51.940;21.258;2023-11-22T18:26:06;101703.08;;;-4.68;100.00
64503;BME280;50971;51.940;21.258;2023-11-22T18:36:08;101696.50;;;-4.79;100.00
64503;BME280;50971;51.940;21.258;2023-11-22T18:46:12;101707.77;;;-4.91;100.00
64503;BME280;50971;51.940;21.258;2023-11-22T18:56:14;101702.52;;;-4.74;100.00
64503;BME280;50971;51.940;21.258;2023-11-22T19:06:16;101687.73;;;-4.52;100.00
64503;BME280;50971;51.940;21.258;2023-11-22T19:16:20;101681.92;;;-4.40;100.00
64503;BME280;50971;51.940;21.258;2023-11-22T19:26:25;101674.83;;;-4.62;100.00
64503;BME280;50971;51.940;21.258;2023-11-22T19:36:27;101694.39;;;-4.95;100.00
64503;BME280;50971;51.940;21.258;2023-11-22T19:46:33;101672.64;;;-5.24;100.00
64503;BME280;50971;51.940;21.258;2023-11-22T19:56:35;101654.38;;;-5.42;100.00
64503;BME280;50971;51.940;21.258;2023-11-22T20:06:37;101632.62;;;-5.16;100.00
64503;BME280;50971;51.940;21.258;2023-11-22T20:16:39;101640.45;;;-4.73;100.00
64503;BME280;50971;51.940;21.258;2023-11-22T20:26:44;101616.61;;;-4.52;100.00
64503;BME280;50971;51.940;21.258;2023-11-22T20:36:45;101612.80;;;-4.51;100.00
64503;BME280;50971;51.940;21.258;2023-11-22T20:46:47;101601.70;;;-4.55;100.00
64503;BME280;50971;51.940;21.258;2023-11-22T20:56:50;101613.00;;;-4.37;100.00
64503;BME280;50971;51.940;21.258;2023-11-22T21:06:52;101597.19;;;-4.05;100.00
64503;BME280;50971;51.940;21.258;2023-11-22T21:27:11;101548.88;;;-3.90;100.00
64503;BME280;50971;51.940;21.258;2023-11-22T21:37:12;101548.98;;;-4.12;100.00
64503;BME280;50971;51.940;21.258;2023-11-22T21:47:14;101560.63;;;-4.34;100.00
64503;BME280;50971;51.940;21.258;2023-11-22T21:57:16;101536.20;;;-4.50;100.00
64503;BME280;50971;51.940;21.258;2023-11-22T22:07:18;101499.21;;;-4.42;100.00
64503;BME280;50971;51.940;21.258;2023-11-22T22:17:20;101475.54;;;-4.14;100.00
64503;BME280;50971;51.940;21.258;2023-11-22T22:27:21;101450.95;;;-3.88;100.00
64503;BME280;50971;51.940;21.258;2023-11-22T22:37:23;101444.32;;;-3.90;100.00
64503;BME280;50971;51.940;21.258;2023-11-22T22:47:25;101432.00;;;-4.07;100.00
64503;BME280;50971;51.940;21.258;2023-11-22T22:57:27;101426.65;;;-4.30;100.00
64503;BME280;50971;51.940;21.258;2023-11-22T23:07:29;101400.06;;;-4.49;100.00
64503;BME280;50971;51.940;21.258;2023-11-22T23:17:31;101369.23;;;-4.56;100.00
64503;BME280;50971;51.940;21.258;2023-11-22T23:27:33;101314.66;;;-4.46;100.00
64503;BME280;50971;51.940;21.258;2023-11-22T23:37:38;101312.80;;;-4.36;100.00
64503;BME280;50971;51.940;21.258;2023-11-22T23:47:41;101287.73;;;-4.44;100.00
64503;BME280;50971;51.940;21.258;2023-11-22T23:57:43;101255.35;;;-4.56;100.00
